sensor_id;sensor_type;location;lat;lon;timestamp;pressure;altitude;pressure_sealevel;temperature;humidity
70323;BME280;57735;56.264;43.898;2023-05-02T00:01:28;100801.00;;;7.09;84.47
70323;BME280;57735;56.264;43.898;2023-05-02T00:03:59;100797.28;;;7.00;84.82
70323;BME280;57735;56.264;43.898;2023-05-02T00:06:30;100792.44;;;6.94;84.90
70323;BME280;57735;56.264;43.898;2023-05-02T00:09:02;100795.56;;;6.88;84.72
70323;BME280;57735;56.264;43.898;2023-05-02T00:11:33;100804.00;;;6.82;85.08
70323;BME280;57735;56.264;43.898;2023-05-02T00:14:03;100801.84;;;6.76;85.20
70323;BME280;57735;56.264;43.898;2023-05-02T00:16:34;100812.66;;;6.73;85.02
70323;BME280;57735;56.264;43.898;2023-05-02T00:19:07;100808.69;;;6.67;85.01
70323;BME280;57735;56.264;43.898;2023-05-02T00:21:38;100809.16;;;6.61;85.39
70323;BME280;57735;56.264;43.898;2023-05-02T00:24:11;100804.94;;;6.58;85.56
70323;BME280;57735;56.264;43.898;2023-05-02T00:26:42;100810.72;;;6.52;85.80
70323;BME280;57735;56.264;43.898;2023-05-02T00:29:13;100808.19;;;6.51;85.61
70323;BME280;57735;56.264;43.898;2023-05-02T00:31:43;100812.13;;;6.45;85.91
70323;BME280;57735;56.264;43.898;2023-05-02T00:34:14;100817.53;;;6.44;85.96
70323;BME280;57735;56.264;43.898;2023-05-02T00:36:45;100828.38;;;6.41;85.98
70323;BME280;57735;56.264;43.898;2023-05-02T00:39:17;100829.44;;;6.38;86.25
70323;BME280;57735;56.264;43.898;2023-05-02T00:41:48;100831.97;;;6.40;86.34
70323;BME280;57735;56.264;43.898;2023-05-02T00:44:18;100832.59;;;6.43;86.52
70323;BME280;57735;56.264;43.898;2023-05-02T00:46:49;100839.84;;;6.52;86.81
70323;BME280;57735;56.264;43.898;2023-05-02T00:49:21;100843.25;;;6.65;87.04
70323;BME280;57735;56.264;43.898;2023-05-02T00:51:52;100834.69;;;6.73;87.05
70323;BME280;57735;56.264;43.898;2023-05-02T00:54:23;100841.13;;;6.82;86.97
70323;BME280;57735;56.264;43.898;2023-05-02T00:56:54;100846.75;;;6.88;86.63
70323;BME280;57735;56.264;43.898;2023-05-02T00:59:25;100854.97;;;6.96;86.54
70323;BME280;57735;56.264;43.898;2023-05-02T01:10:48;100874.75;;;7.15;85.66
70323;BME280;57735;56.264;43.898;2023-05-02T01:13:28;100869.09;;;7.19;85.15
70323;BME280;57735;56.264;43.898;2023-05-02T01:16:02;100881.25;;;7.22;85.04
70323;BME280;57735;56.264;43.898;2023-05-02T01:18:35;100883.66;;;7.25;84.64
70323;BME280;57735;56.264;43.898;2023-05-02T01:21:09;100888.84;;;7.26;84.26
70323;BME280;57735;56.264;43.898;2023-05-02T01:24:10;100880.91;;;7.26;84.04
70323;BME280;57735;56.264;43.898;2023-05-02T01:29:40;100890.19;;;7.32;83.87
70323;BME280;57735;56.264;43.898;2023-05-02T01:32:14;100898.25;;;7.30;83.57
70323;BME280;57735;56.264;43.898;2023-05-02T01:34:46;100893.81;;;7.31;83.44
70323;BME280;57735;56.264;43.898;2023-05-02T01:37:19;100899.84;;;7.33;83.45
70323;BME280;57735;56.264;43.898;2023-05-02T01:39:51;100894.41;;;7.34;83.26
70323;BME280;57735;56.264;43.898;2023-05-02T01:42:25;100903.94;;;7.37;83.31
70323;BME280;57735;56.264;43.898;2023-05-02T01:44:57;100905.38;;;7.41;83.19
70323;BME280;57735;56.264;43.898;2023-05-02T01:47:32;100910.56;;;7.43;83.11
70323;BME280;57735;56.264;43.898;2023-05-02T01:50:06;100919.34;;;7.43;82.97
70323;BME280;57735;56.264;43.898;2023-05-02T01:52:41;100909.47;;;7.45;82.91
70323;BME280;57735;56.264;43.898;2023-05-02T01:55:18;100921.91;;;7.45;82.70
70323;BME280;57735;56.264;43.898;2023-05-02T01:57:50;100933.34;;;7.45;82.80
70323;BME280;57735;56.264;43.898;2023-05-02T02:00:24;100933.97;;;7.49;82.93
70323;BME280;57735;56.264;43.898;2023-05-02T02:02:56;100945.28;;;7.51;82.87
70323;BME280;57735;56.264;43.898;2023-05-02T02:05:28;100946.03;;;7.53;82.65
70323;BME280;57735;56.264;43.898;2023-05-02T02:07:59;100946.88;;;7.53;82.54
70323;BME280;57735;56.264;43.898;2023-05-02T02:10:36;100949.66;;;7.52;82.41
70323;BME280;57735;56.264;43.898;2023-05-02T02:13:17;100953.38;;;7.49;82.59
70323;BME280;57735;56.264;43.898;2023-05-02T02:15:49;100960.50;;;7.49;82.45
70323;BME280;57735;56.264;43.898;2023-05-02T02:18:26;100965.91;;;7.47;82.42
70323;BME280;57735;56.264;43.898;2023-05-02T02:20:59;100983.50;;;7.48;82.43
70323;BME280;57735;56.264;43.898;2023-05-02T02:23:32;100976.41;;;7.49;82.16
70323;BME280;57735;56.264;43.898;2023-05-02T02:26:05;100980.63;;;7.51;82.06
70323;BME280;57735;56.264;43.898;2023-05-02T02:28:37;100988.47;;;7.53;81.93
70323;BME280;57735;56.264;43.898;2023-05-02T02:31:07;100991.13;;;7.53;81.59
70323;BME280;57735;56.264;43.898;2023-05-02T02:33:39;100996.28;;;7.54;81.64
70323;BME280;57735;56.264;43.898;2023-05-02T02:36:55;100997.84;;;7.57;81.59
70323;BME280;57735;56.264;43.898;2023-05-02T02:42:31;100995.81;;;7.60;80.85
70323;BME280;57735;56.264;43.898;2023-05-02T02:45:22;101004.00;;;7.57;80.19
70323;BME280;57735;56.264;43.898;2023-05-02T02:48:22;101007.03;;;7.53;79.71
70323;BME280;57735;56.264;43.898;2023-05-02T02:51:02;101011.63;;;7.51;79.68
70323;BME280;57735;56.264;43.898;2023-05-02T02:56:40;101018.50;;;7.53;79.77
70323;BME280;57735;56.264;43.898;2023-05-02T03:02:08;101025.84;;;7.50;79.29
70323;BME280;57735;56.264;43.898;2023-05-02T03:04:42;101021.38;;;7.50;79.21
70323;BME280;57735;56.264;43.898;2023-05-02T03:07:14;101032.84;;;7.51;78.95
70323;BME280;57735;56.264;43.898;2023-05-02T03:09:48;101033.69;;;7.51;78.89
70323;BME280;57735;56.264;43.898;2023-05-02T03:12:18;101038.16;;;7.51;78.64
70323;BME280;57735;56.264;43.898;2023-05-02T03:14:50;101042.22;;;7.55;78.90
70323;BME280;57735;56.264;43.898;2023-05-02T03:17:21;101044.41;;;7.61;78.75
70323;BME280;57735;56.264;43.898;2023-05-02T03:19:54;101053.63;;;7.68;78.75
70323;BME280;57735;56.264;43.898;2023-05-02T03:22:24;101052.66;;;7.69;78.42
70323;BME280;57735;56.264;43.898;2023-05-02T03:24:55;101041.78;;;7.72;78.25
70323;BME280;57735;56.264;43.898;2023-05-02T03:27:27;101045.28;;;7.72;78.13
70323;BME280;57735;56.264;43.898;2023-05-02T03:29:58;101043.84;;;7.80;78.10
70323;BME280;57735;56.264;43.898;2023-05-02T03:32:29;101048.91;;;7.83;77.77
70323;BME280;57735;56.264;43.898;2023-05-02T03:35:00;101050.72;;;7.93;77.40
70323;BME280;57735;56.264;43.898;2023-05-02T03:37:33;101044.09;;;8.10;77.42
70323;BME280;57735;56.264;43.898;2023-05-02T03:40:04;101051.22;;;8.21;76.85
70323;BME280;57735;56.264;43.898;2023-05-02T03:42:37;101065.56;;;8.29;76.37
70323;BME280;57735;56.264;43.898;2023-05-02T03:45:11;101065.44;;;8.31;75.56
70323;BME280;57735;56.264;43.898;2023-05-02T03:47:42;101073.22;;;8.34;75.75
70323;BME280;57735;56.264;43.898;2023-05-02T03:50:12;101082.22;;;8.31;75.75
70323;BME280;57735;56.264;43.898;2023-05-02T03:52:48;101092.13;;;8.29;75.95
70323;BME280;57735;56.264;43.898;2023-05-02T03:55:20;101100.34;;;8.26;75.74
70323;BME280;57735;56.264;43.898;2023-05-02T03:57:51;101104.19;;;8.22;75.25
70323;BME280;57735;56.264;43.898;2023-05-02T04:00:21;101093.72;;;8.21;75.23
70323;BME280;57735;56.264;43.898;2023-05-02T04:02:52;101101.06;;;8.17;74.66
70323;BME280;57735;56.264;43.898;2023-05-02T04:05:23;101100.00;;;8.20;74.94
70323;BME280;57735;56.264;43.898;2023-05-02T04:07:55;101117.72;;;8.19;75.29
70323;BME280;57735;56.264;43.898;2023-05-02T04:10:26;101122.19;;;8.19;75.42
70323;BME280;57735;56.264;43.898;2023-05-02T04:12:57;101119.53;;;8.19;75.59
70323;BME280;57735;56.264;43.898;2023-05-02T04:15:28;101116.16;;;8.17;75.41
70323;BME280;57735;56.264;43.898;2023-05-02T04:17:59;101112.53;;;8.18;75.47
70323;BME280;57735;56.264;43.898;2023-05-02T04:20:32;101116.50;;;8.23;75.68
70323;BME280;57735;56.264;43.898;2023-05-02T04:23:03;101124.13;;;8.28;75.60
70323;BME280;57735;56.264;43.898;2023-05-02T04:25:34;101122.84;;;8.33;75.14
70323;BME280;57735;56.264;43.898;2023-05-02T04:28:07;101114.00;;;8.44;74.86
70323;BME280;57735;56.264;43.898;2023-05-02T04:30:38;101121.00;;;8.56;74.46
70323;BME280;57735;56.264;43.898;2023-05-02T04:33:09;101131.22;;;8.72;74.32
70323;BME280;57735;56.264;43.898;2023-05-02T04:35:40;101137.88;;;8.78;73.87
70323;BME280;57735;56.264;43.898;2023-05-02T04:38:11;101140.06;;;8.72;73.26
70323;BME280;57735;56.264;43.898;2023-05-02T04:40:44;101146.22;;;8.73;73.41
70323;BME280;57735;56.264;43.898;2023-05-02T04:43:15;101136.44;;;8.62;73.31
70323;BME280;57735;56.264;43.898;2023-05-02T04:45:46;101145.63;;;8.58;73.45
70323;BME280;57735;56.264;43.898;2023-05-02T04:48:17;101152.19;;;8.54;73.07
70323;BME280;57735;56.264;43.898;2023-05-02T04:50:51;101146.03;;;8.54;72.80
70323;BME280;57735;56.264;43.898;2023-05-02T04:53:27;101147.69;;;8.55;73.22
70323;BME280;57735;56.264;43.898;2023-05-02T04:55:58;101150.72;;;8.61;73.04
70323;BME280;57735;56.264;43.898;2023-05-02T04:58:29;101153.63;;;8.69;73.11
70323;BME280;57735;56.264;43.898;2023-05-02T05:01:00;101160.13;;;8.77;72.57
70323;BME280;57735;56.264;43.898;2023-05-02T05:03:33;101163.88;;;8.85;73.04
70323;BME280;57735;56.264;43.898;2023-05-02T05:06:04;101162.91;;;8.86;72.32
70323;BME280;57735;56.264;43.898;2023-05-02T05:08:37;101175.91;;;8.89;72.04
70323;BME280;57735;56.264;43.898;2023-05-02T05:11:10;101174.09;;;8.90;71.19
70323;BME280;57735;56.264;43.898;2023-05-02T05:13:41;101179.41;;;8.90;71.45
70323;BME280;57735;56.264;43.898;2023-05-02T05:16:12;101192.13;;;8.97;71.76
70323;BME280;57735;56.264;43.898;2023-05-02T05:18:43;101191.03;;;9.00;72.00
70323;BME280;57735;56.264;43.898;2023-05-02T05:21:13;101194.28;;;9.03;72.07
70323;BME280;57735;56.264;43.898;2023-05-02T05:23:44;101191.03;;;9.00;71.64
70323;BME280;57735;56.264;43.898;2023-05-02T05:26:16;101190.41;;;8.96;71.83
70323;BME280;57735;56.264;43.898;2023-05-02T05:28:46;101193.69;;;9.00;71.77
70323;BME280;57735;56.264;43.898;2023-05-02T05:31:19;101198.16;;;8.99;71.70
70323;BME280;57735;56.264;43.898;2023-05-02T05:33:51;101203.25;;;9.02;72.02
70323;BME280;57735;56.264;43.898;2023-05-02T05:36:22;101205.63;;;9.05;72.05
70323;BME280;57735;56.264;43.898;2023-05-02T05:38:52;101207.31;;;9.06;71.85
70323;BME280;57735;56.264;43.898;2023-05-02T05:41:23;101212.41;;;9.09;71.71
70323;BME280;57735;56.264;43.898;2023-05-02T05:43:54;101213.47;;;9.07;71.78
70323;BME280;57735;56.264;43.898;2023-05-02T05:46:25;101210.09;;;9.05;71.92
70323;BME280;57735;56.264;43.898;2023-05-02T05:48:56;101217.25;;;9.04;71.80
70323;BME280;57735;56.264;43.898;2023-05-02T05:51:27;101216.78;;;8.99;71.58
70323;BME280;57735;56.264;43.898;2023-05-02T05:53:58;101219.31;;;9.01;71.97
70323;BME280;57735;56.264;43.898;2023-05-02T05:56:28;101222.81;;;9.01;71.84
70323;BME280;57735;56.264;43.898;2023-05-02T05:58:59;101225.47;;;9.01;72.13
70323;BME280;57735;56.264;43.898;2023-05-02T06:01:30;101224.13;;;9.07;71.93
70323;BME280;57735;56.264;43.898;2023-05-02T06:04:01;101227.88;;;9.16;71.07
70323;BME280;57735;56.264;43.898;2023-05-02T06:06:33;101239.84;;;9.21;70.18
70323;BME280;57735;56.264;43.898;2023-05-02T06:09:03;101232.44;;;9.25;69.99
70323;BME280;57735;56.264;43.898;2023-05-02T06:11:36;101240.06;;;9.29;69.98
70323;BME280;57735;56.264;43.898;2023-05-02T06:14:07;101238.00;;;9.33;70.03
70323;BME280;57735;56.264;43.898;2023-05-02T06:16:38;101246.56;;;9.36;69.63
70323;BME280;57735;56.264;43.898;2023-05-02T06:19:11;101252.75;;;9.37;69.43
70323;BME280;57735;56.264;43.898;2023-05-02T06:21:42;101252.09;;;9.44;69.08
70323;BME280;57735;56.264;43.898;2023-05-02T06:24:12;101251.75;;;9.49;68.80
70323;BME280;57735;56.264;43.898;2023-05-02T06:26:43;101261.28;;;9.52;68.75
70323;BME280;57735;56.264;43.898;2023-05-02T06:29:14;101261.06;;;9.55;68.17
70323;BME280;57735;56.264;43.898;2023-05-02T06:31:45;101261.47;;;9.71;68.51
70323;BME280;57735;56.264;43.898;2023-05-02T06:34:15;101271.59;;;9.77;67.24
70323;BME280;57735;56.264;43.898;2023-05-02T06:36:46;101268.69;;;9.80;66.55
70323;BME280;57735;56.264;43.898;2023-05-02T06:39:17;101263.44;;;9.90;66.29
70323;BME280;57735;56.264;43.898;2023-05-02T06:41:48;101261.00;;;9.98;65.98
70323;BME280;57735;56.264;43.898;2023-05-02T06:44:18;101262.63;;;10.10;66.00
70323;BME280;57735;56.264;43.898;2023-05-02T06:46:49;101270.00;;;10.18;65.75
70323;BME280;57735;56.264;43.898;2023-05-02T06:49:21;101257.13;;;10.23;65.42
70323;BME280;57735;56.264;43.898;2023-05-02T06:51:52;101265.84;;;10.25;64.84
70323;BME280;57735;56.264;43.898;2023-05-02T06:54:23;101262.66;;;10.31;65.53
70323;BME280;57735;56.264;43.898;2023-05-02T06:56:53;101263.97;;;10.36;65.16
70323;BME280;57735;56.264;43.898;2023-05-02T06:59:24;101269.88;;;10.40;65.34
70323;BME280;57735;56.264;43.898;2023-05-02T07:01:55;101271.97;;;10.36;65.24
70323;BME280;57735;56.264;43.898;2023-05-02T07:04:26;101280.81;;;10.37;65.40
70323;BME280;57735;56.264;43.898;2023-05-02T07:07:00;101286.66;;;10.31;64.77
70323;BME280;57735;56.264;43.898;2023-05-02T07:09:30;101288.09;;;10.35;64.98
70323;BME280;57735;56.264;43.898;2023-05-02T07:12:01;101288.94;;;10.35;65.32
70323;BME280;57735;56.264;43.898;2023-05-02T07:14:33;101279.69;;;10.39;65.29
70323;BME280;57735;56.264;43.898;2023-05-02T07:17:04;101288.53;;;10.40;65.35
70323;BME280;57735;56.264;43.898;2023-05-02T07:19:34;101286.16;;;10.37;65.73
70323;BME280;57735;56.264;43.898;2023-05-02T07:22:05;101299.00;;;10.32;65.91
70323;BME280;57735;56.264;43.898;2023-05-02T07:24:39;101299.75;;;10.23;66.38
70323;BME280;57735;56.264;43.898;2023-05-02T07:27:11;101306.69;;;10.14;66.41
70323;BME280;57735;56.264;43.898;2023-05-02T07:29:47;101302.72;;;10.08;66.86
70323;BME280;57735;56.264;43.898;2023-05-02T07:32:19;101303.38;;;10.01;67.38
70323;BME280;57735;56.264;43.898;2023-05-02T07:34:55;101302.03;;;9.95;67.52
70323;BME280;57735;56.264;43.898;2023-05-02T07:37:30;101307.63;;;9.92;67.75
70323;BME280;57735;56.264;43.898;2023-05-02T07:40:02;101315.13;;;9.98;67.81
70323;BME280;57735;56.264;43.898;2023-05-02T07:42:34;101312.94;;;10.03;66.84
70323;BME280;57735;56.264;43.898;2023-05-02T07:45:06;101313.59;;;10.17;66.80
70323;BME280;57735;56.264;43.898;2023-05-02T07:47:37;101304.72;;;10.27;66.00
70323;BME280;57735;56.264;43.898;2023-05-02T07:50:09;101311.34;;;10.33;65.51
70323;BME280;57735;56.264;43.898;2023-05-02T07:52:40;101313.53;;;10.39;64.71
70323;BME280;57735;56.264;43.898;2023-05-02T07:55:11;101312.38;;;10.41;64.92
70323;BME280;57735;56.264;43.898;2023-05-02T07:57:42;101313.56;;;10.48;65.07
70323;BME280;57735;56.264;43.898;2023-05-02T08:00:13;101309.97;;;10.59;64.89
70323;BME280;57735;56.264;43.898;2023-05-02T08:02:48;101325.47;;;10.65;64.21
70323;BME280;57735;56.264;43.898;2023-05-02T08:05:21;101322.84;;;10.75;64.01
70323;BME280;57735;56.264;43.898;2023-05-02T08:07:52;101326.94;;;10.79;63.26
70323;BME280;57735;56.264;43.898;2023-05-02T08:10:25;101320.50;;;10.81;63.34
70323;BME280;57735;56.264;43.898;2023-05-02T08:12:57;101323.34;;;10.90;63.32
70323;BME280;57735;56.264;43.898;2023-05-02T08:15:28;101327.78;;;11.00;63.15
70323;BME280;57735;56.264;43.898;2023-05-02T08:18:02;101323.91;;;11.14;62.40
70323;BME280;57735;56.264;43.898;2023-05-02T08:20:33;101324.75;;;11.24;62.60
70323;BME280;57735;56.264;43.898;2023-05-02T08:23:03;101322.53;;;11.29;62.84
70323;BME280;57735;56.264;43.898;2023-05-02T08:25:34;101325.41;;;11.37;62.03
70323;BME280;57735;56.264;43.898;2023-05-02T08:28:05;101323.72;;;11.36;61.80
70323;BME280;57735;56.264;43.898;2023-05-02T08:30:36;101339.84;;;11.35;61.76
70323;BME280;57735;56.264;43.898;2023-05-02T08:33:06;101346.97;;;11.25;61.57
70323;BME280;57735;56.264;43.898;2023-05-02T08:35:38;101346.34;;;11.11;62.01
70323;BME280;57735;56.264;43.898;2023-05-02T08:38:16;101360.09;;;11.07;61.93
70323;BME280;57735;56.264;43.898;2023-05-02T08:40:47;101348.03;;;11.12;62.61
70323;BME280;57735;56.264;43.898;2023-05-02T08:43:18;101349.34;;;11.18;62.46
70323;BME280;57735;56.264;43.898;2023-05-02T08:45:51;101355.94;;;11.24;62.03
70323;BME280;57735;56.264;43.898;2023-05-02T08:48:23;101346.88;;;11.36;61.62
70323;BME280;57735;56.264;43.898;2023-05-02T08:50:55;101350.44;;;11.46;61.24
70323;BME280;57735;56.264;43.898;2023-05-02T08:53:26;101348.91;;;11.53;60.95
70323;BME280;57735;56.264;43.898;2023-05-02T08:55:57;101368.72;;;11.50;60.24
70323;BME280;57735;56.264;43.898;2023-05-02T08:58:29;101357.31;;;11.48;59.78
70323;BME280;57735;56.264;43.898;2023-05-02T09:01:02;101358.47;;;11.56;59.56
70323;BME280;57735;56.264;43.898;2023-05-02T09:03:35;101361.16;;;11.56;59.75
70323;BME280;57735;56.264;43.898;2023-05-02T09:06:17;101360.31;;;11.65;59.63
70323;BME280;57735;56.264;43.898;2023-05-02T09:08:50;101359.50;;;11.74;59.87
70323;BME280;57735;56.264;43.898;2023-05-02T09:11:24;101360.94;;;11.78;59.39
70323;BME280;57735;56.264;43.898;2023-05-02T09:13:57;101364.06;;;11.83;58.95
70323;BME280;57735;56.264;43.898;2023-05-02T09:16:37;101357.59;;;11.85;58.74
70323;BME280;57735;56.264;43.898;2023-05-02T09:19:09;101359.59;;;12.03;58.78
70323;BME280;57735;56.264;43.898;2023-05-02T09:21:40;101363.84;;;12.34;58.33
70323;BME280;57735;56.264;43.898;2023-05-02T09:24:20;101356.63;;;12.73;57.94
70323;BME280;57735;56.264;43.898;2023-05-02T09:27:02;101358.19;;;13.13;57.74
70323;BME280;57735;56.264;43.898;2023-05-02T09:29:33;101359.72;;;13.25;55.27
70323;BME280;57735;56.264;43.898;2023-05-02T09:32:10;101347.03;;;13.27;56.29
70323;BME280;57735;56.264;43.898;2023-05-02T09:35:06;101348.47;;;13.21;54.62
70323;BME280;57735;56.264;43.898;2023-05-02T09:37:38;101359.13;;;13.31;55.29
70323;BME280;57735;56.264;43.898;2023-05-02T09:40:09;101359.63;;;13.17;55.07
70323;BME280;57735;56.264;43.898;2023-05-02T09:42:40;101365.28;;;13.04;55.33
70323;BME280;57735;56.264;43.898;2023-05-02T09:45:21;101361.06;;;12.92;56.49
70323;BME280;57735;56.264;43.898;2023-05-02T09:47:52;101366.56;;;12.90;56.73
70323;BME280;57735;56.264;43.898;2023-05-02T09:50:41;101363.78;;;12.82;56.88
70323;BME280;57735;56.264;43.898;2023-05-02T09:53:12;101360.38;;;12.90;58.10
70323;BME280;57735;56.264;43.898;2023-05-02T09:55:42;101355.59;;;12.84;56.73
70323;BME280;57735;56.264;43.898;2023-05-02T09:58:20;101353.09;;;12.73;56.92
70323;BME280;57735;56.264;43.898;2023-05-02T10:00:52;101357.00;;;12.78;57.42
70323;BME280;57735;56.264;43.898;2023-05-02T10:03:24;101358.41;;;12.82;57.39
70323;BME280;57735;56.264;43.898;2023-05-02T10:05:56;101348.56;;;12.83;57.47
70323;BME280;57735;56.264;43.898;2023-05-02T10:08:27;101350.69;;;12.79;58.10
70323;BME280;57735;56.264;43.898;2023-05-02T10:10:59;101356.03;;;12.79;57.54
70323;BME280;57735;56.264;43.898;2023-05-02T10:13:33;101358.84;;;12.87;57.23
70323;BME280;57735;56.264;43.898;2023-05-02T10:16:07;101355.13;;;12.98;57.12
70323;BME280;57735;56.264;43.898;2023-05-02T10:18:51;101349.06;;;13.06;55.35
70323;BME280;57735;56.264;43.898;2023-05-02T10:21:30;101357.34;;;13.12;55.83
70323;BME280;57735;56.264;43.898;2023-05-02T10:24:02;101343.66;;;13.25;56.03
70323;BME280;57735;56.264;43.898;2023-05-02T10:26:36;101343.19;;;13.39;55.39
70323;BME280;57735;56.264;43.898;2023-05-02T10:29:07;101343.00;;;13.50;54.89
70323;BME280;57735;56.264;43.898;2023-05-02T10:31:39;101346.41;;;13.43;54.41
70323;BME280;57735;56.264;43.898;2023-05-02T10:34:12;101343.50;;;13.26;54.38
70323;BME280;57735;56.264;43.898;2023-05-02T10:36:44;101346.19;;;13.26;55.29
70323;BME280;57735;56.264;43.898;2023-05-02T10:39:15;101348.16;;;13.34;53.83
70323;BME280;57735;56.264;43.898;2023-05-02T10:41:46;101336.31;;;13.82;53.47
70323;BME280;57735;56.264;43.898;2023-05-02T10:44:17;101346.31;;;14.07;53.14
70323;BME280;57735;56.264;43.898;2023-05-02T10:46:48;101340.69;;;13.83;53.11
70323;BME280;57735;56.264;43.898;2023-05-02T10:49:19;101344.16;;;13.66;53.88
70323;BME280;57735;56.264;43.898;2023-05-02T10:51:52;101337.72;;;13.58;53.77
70323;BME280;57735;56.264;43.898;2023-05-02T10:54:23;101330.81;;;13.83;54.00
70323;BME280;57735;56.264;43.898;2023-05-02T10:57:06;101336.34;;;14.17;53.81
70323;BME280;57735;56.264;43.898;2023-05-02T10:59:38;101333.91;;;14.06;52.50
70323;BME280;57735;56.264;43.898;2023-05-02T11:05:01;101337.63;;;13.95;52.21
70323;BME280;57735;56.264;43.898;2023-05-02T11:07:36;101335.06;;;13.76;52.33
70323;BME280;57735;56.264;43.898;2023-05-02T11:12:54;101341.78;;;13.35;53.47
70323;BME280;57735;56.264;43.898;2023-05-02T11:18:07;101334.16;;;13.68;54.68
70323;BME280;57735;56.264;43.898;2023-05-02T11:20:39;101334.09;;;13.95;52.51
70323;BME280;57735;56.264;43.898;2023-05-02T11:25:46;101337.31;;;14.34;51.38
70323;BME280;57735;56.264;43.898;2023-05-02T11:34:10;101337.72;;;14.21;51.73
70323;BME280;57735;56.264;43.898;2023-05-02T11:36:41;101338.91;;;14.27;52.12
70323;BME280;57735;56.264;43.898;2023-05-02T11:39:19;101331.88;;;14.26;51.07
70323;BME280;57735;56.264;43.898;2023-05-02T11:41:52;101337.63;;;14.31;52.09
70323;BME280;57735;56.264;43.898;2023-05-02T11:44:24;101326.44;;;14.18;50.94
70323;BME280;57735;56.264;43.898;2023-05-02T11:46:55;101321.00;;;14.10;51.45
70323;BME280;57735;56.264;43.898;2023-05-02T11:49:25;101328.44;;;13.98;50.64
70323;BME280;57735;56.264;43.898;2023-05-02T11:51:57;101326.59;;;13.81;51.76
70323;BME280;57735;56.264;43.898;2023-05-02T11:54:29;101327.56;;;13.80;51.70
70323;BME280;57735;56.264;43.898;2023-05-02T11:57:00;101330.47;;;13.69;52.17
70323;BME280;57735;56.264;43.898;2023-05-02T11:59:51;101327.88;;;13.77;53.15
70323;BME280;57735;56.264;43.898;2023-05-02T12:02:44;101336.31;;;13.82;52.19
70323;BME280;57735;56.264;43.898;2023-05-02T12:05:26;101342.06;;;13.87;52.29
70323;BME280;57735;56.264;43.898;2023-05-02T12:07:59;101341.91;;;13.88;51.36
70323;BME280;57735;56.264;43.898;2023-05-02T12:10:35;101348.28;;;13.87;52.21
70323;BME280;57735;56.264;43.898;2023-05-02T12:13:07;101364.72;;;13.92;51.50
70323;BME280;57735;56.264;43.898;2023-05-02T12:15:38;101360.31;;;14.01;51.70
70323;BME280;57735;56.264;43.898;2023-05-02T12:18:09;101353.19;;;14.10;50.65
70323;BME280;57735;56.264;43.898;2023-05-02T12:20:41;101347.16;;;14.43;50.34
70323;BME280;57735;56.264;43.898;2023-05-02T12:23:12;101353.00;;;14.82;49.41
70323;BME280;57735;56.264;43.898;2023-05-02T12:25:43;101351.59;;;15.30;48.67
70323;BME280;57735;56.264;43.898;2023-05-02T12:28:17;101347.78;;;15.41;47.91
70323;BME280;57735;56.264;43.898;2023-05-02T12:30:49;101338.22;;;15.38;47.22
70323;BME280;57735;56.264;43.898;2023-05-02T12:33:20;101341.22;;;15.09;47.53
70323;BME280;57735;56.264;43.898;2023-05-02T12:35:51;101335.13;;;14.99;47.12
70323;BME280;57735;56.264;43.898;2023-05-02T12:38:23;101332.47;;;15.33;46.80
70323;BME280;57735;56.264;43.898;2023-05-02T12:40:55;101338.59;;;16.01;45.20
70323;BME280;57735;56.264;43.898;2023-05-02T12:43:46;101332.03;;;16.93;44.40
70323;BME280;57735;56.264;43.898;2023-05-02T12:46:17;101333.22;;;16.99;43.63
70323;BME280;57735;56.264;43.898;2023-05-02T12:49:00;101333.03;;;17.08;42.68
70323;BME280;57735;56.264;43.898;2023-05-02T12:51:31;101326.31;;;16.96;42.37
70323;BME280;57735;56.264;43.898;2023-05-02T12:54:04;101334.34;;;17.21;43.87
70323;BME280;57735;56.264;43.898;2023-05-02T12:56:39;101319.41;;;16.94;42.94
70323;BME280;57735;56.264;43.898;2023-05-02T12:59:28;101318.25;;;16.88;43.06
70323;BME280;57735;56.264;43.898;2023-05-02T13:01:59;101326.88;;;16.67;43.43
70323;BME280;57735;56.264;43.898;2023-05-02T13:04:37;101309.50;;;16.62;43.16
70323;BME280;57735;56.264;43.898;2023-05-02T13:07:09;101315.91;;;16.77;43.84
70323;BME280;57735;56.264;43.898;2023-05-02T13:09:40;101317.63;;;16.70;42.67
70323;BME280;57735;56.264;43.898;2023-05-02T13:12:14;101327.69;;;16.52;43.99
70323;BME280;57735;56.264;43.898;2023-05-02T13:14:45;101318.75;;;16.11;43.87
70323;BME280;57735;56.264;43.898;2023-05-02T13:17:16;101321.66;;;16.25;44.51
70323;BME280;57735;56.264;43.898;2023-05-02T13:19:47;101318.56;;;15.88;44.32
70323;BME280;57735;56.264;43.898;2023-05-02T13:22:17;101325.97;;;15.86;44.62
70323;BME280;57735;56.264;43.898;2023-05-02T13:24:48;101318.44;;;16.05;44.85
70323;BME280;57735;56.264;43.898;2023-05-02T13:27:22;101320.44;;;16.60;43.84
70323;BME280;57735;56.264;43.898;2023-05-02T13:29:52;101325.00;;;16.92;43.30
70323;BME280;57735;56.264;43.898;2023-05-02T13:32:23;101313.22;;;18.02;41.25
70323;BME280;57735;56.264;43.898;2023-05-02T13:34:54;101315.34;;;18.75;39.99
70323;BME280;57735;56.264;43.898;2023-05-02T13:37:25;101325.78;;;20.24;37.27
70323;BME280;57735;56.264;43.898;2023-05-02T13:39:58;101315.22;;;21.41;34.82
70323;BME280;57735;56.264;43.898;2023-05-02T13:42:29;101314.59;;;22.13;32.94
70323;BME280;57735;56.264;43.898;2023-05-02T13:45:02;101309.22;;;22.52;32.42
70323;BME280;57735;56.264;43.898;2023-05-02T13:47:35;101304.78;;;22.97;30.78
70323;BME280;57735;56.264;43.898;2023-05-02T13:50:06;101295.69;;;23.30;30.67
70323;BME280;57735;56.264;43.898;2023-05-02T13:52:39;101288.94;;;22.94;30.86